Terminal Aerodrome Forecast
Issued by NWS Omaha/Valley, NE

Home | Current Version | Previous Version | Graphics & Text | Print | Product List | Glossary On
Versions: 1 2 3 4 5 6 7 8 9 10 11 12 13 14 15 16 17 18 19 20 21 22 23 24 25 26 27 28 29 30 31 32 33 34 35 36
000
FTUS43 KOAX 031135 CCA
TAFOFK
TAF COR
KOFK 031135Z 0312/0412 17010KT P6SM SCT250 WS019/20040KT
     FM031800 34010KT P6SM SCT050 BKN250 PROB30 0321/0324 4SM TSRA
      BKN040CB
     FM040000 02011KT P6SM BKN030=

USA.gov is the U.S. government's official web portal to all federal, state and local government web resources and services.